Time;durP1;ratioP1;P1;durP2;ratioP2;P2;SDS_P1;SDS_P2;PMS_P1;PMS_P2;Temp;Humidity;BMP_temperature;BMP_pressure;BME280_temperature;BME280_humidity;BME280_pressure;Samples;Min_cycle;Max_cycle;Signal;HPM_P1;HPM_P2
2022/09/02 00:00:35;;;;;;;76.22;48.03;;;;;;;15.90;55.71;101572.75;5056339;28;20034;-88
2022/09/02 00:03:01;;;;;;;93.70;58.65;;;;;;;15.87;55.83;101573.03;5055545;28;20024;-87
2022/09/02 00:05:27;;;;;;;107.28;66.82;;;;;;;15.84;56.16;101567.13;5055998;28;20017;-88
2022/09/02 00:07:53;;;;;;;113.10;72.80;;;;;;;15.79;56.18;101569.34;5055794;28;20059;-89
2022/09/02 00:10:19;;;;;;;124.57;78.20;;;;;;;15.76;56.37;101567.78;5055141;28;20084;-89
2022/09/02 00:12:44;;;;;;;142.85;87.03;;;;;;;15.74;56.34;101561.78;5056123;28;20118;-88
2022/09/02 00:15:09;;;;;;;142.45;88.65;;;;;;;15.70;56.67;101563.00;5054749;28;20100;-88
2022/09/02 00:17:35;;;;;;;156.65;91.82;;;;;;;15.65;56.88;101560.75;5056028;28;20118;-89
2022/09/02 00:20:00;;;;;;;152.23;89.53;;;;;;;15.61;56.87;101553.16;5054308;28;20032;-88
2022/09/02 00:22:26;;;;;;;129.93;74.05;;;;;;;15.60;56.96;101559.41;5054958;28;20025;-87
2022/09/02 00:24:51;;;;;;;104.78;58.63;;;;;;;15.55;57.24;101557.13;5056824;28;20017;-88
2022/09/02 00:27:17;;;;;;;65.53;28.60;;;;;;;15.50;57.33;101554.00;5059369;28;20040;-88
2022/09/02 00:29:42;;;;;;;36.10;17.48;;;;;;;15.50;57.41;101559.31;5058780;28;20616;-90
2022/09/02 00:32:10;;;;;;;26.20;13.18;;;;;;;15.44;57.63;101554.53;5054299;28;20479;-89
2022/09/02 00:34:36;;;;;;;11.88;6.25;;;;;;;15.43;57.73;101558.16;5054726;28;20036;-90
2022/09/02 00:37:01;;;;;;;12.13;4.00;;;;;;;15.43;57.51;101555.50;5052301;28;20025;-78
2022/09/02 00:39:26;;;;;;;6.28;3.55;;;;;;;15.37;57.80;101553.34;5048591;28;20031;-78
2022/09/02 00:41:52;;;;;;;10.60;4.13;;;;;;;15.35;57.83;101555.28;5048106;28;20028;-77
2022/09/02 00:44:19;;;;;;;14.60;5.32;;;;;;;15.32;58.00;101559.03;5048108;28;20029;-78
2022/09/02 00:46:45;;;;;;;16.85;8.15;;;;;;;15.29;58.07;101556.66;5048300;28;20048;-78
2022/09/02 00:49:26;;;;;;;17.10;7.72;;;;;;;15.30;58.07;101550.38;5048952;28;20024;-76
2022/09/02 00:51:57;;;;;;;28.15;12.80;;;;;;;15.23;58.39;101551.00;5047241;28;20592;-76
2022/09/02 00:54:25;;;;;;;20.65;9.90;;;;;;;15.20;58.59;101551.22;5048790;28;20467;-76
2022/09/02 00:56:55;;;;;;;29.67;13.10;;;;;;;15.18;58.54;101546.06;5049872;28;20151;-76
2022/09/02 00:59:53;;;;;;;21.95;9.88;;;;;;;15.18;58.30;101547.88;5049793;28;20372;-77
2022/09/02 01:02:22;;;;;;;13.90;6.30;;;;;;;15.14;58.59;101544.63;5036677;28;20041;-76
2022/09/02 01:04:48;;;;;;;12.95;5.28;;;;;;;15.24;58.62;101542.09;5048288;28;20023;-76
2022/09/02 01:07:14;;;;;;;12.15;5.18;;;;;;;15.18;58.64;101548.72;5048677;28;20029;-76
2022/09/02 01:09:40;;;;;;;15.10;5.70;;;;;;;15.14;58.73;101535.84;5049276;28;20033;-76
2022/09/02 01:12:07;;;;;;;16.05;6.90;;;;;;;15.18;58.63;101538.09;5048759;28;20371;-76
2022/09/02 01:14:33;;;;;;;11.07;4.10;;;;;;;15.14;58.77;101533.19;5047413;28;20025;-76
2022/09/02 01:17:00;;;;;;;6.05;2.85;;;;;;;15.13;58.73;101534.16;5049467;28;20036;-76
2022/09/02 01:19:34;;;;;;;9.50;3.17;;;;;;;15.11;58.93;101544.03;5048624;28;20082;-76
2022/09/02 01:22:00;;;;;;;6.55;3.03;;;;;;;15.08;59.00;101537.19;5044827;28;20375;-76
2022/09/02 01:24:28;;;;;;;7.35;3.10;;;;;;;15.08;59.02;101539.00;5048664;28;20028;-76
2022/09/02 01:26:57;;;;;;;5.85;2.83;;;;;;;15.05;59.04;101538.28;5047513;28;20039;-76
2022/09/02 01:29:24;;;;;;;5.18;2.63;;;;;;;15.00;59.35;101535.16;5049020;28;20052;-76
2022/09/02 01:31:50;;;;;;;4.28;2.50;;;;;;;14.96;59.29;101531.09;5049009;28;20032;-76
2022/09/02 01:34:17;;;;;;;5.80;2.53;;;;;;;15.01;59.48;101536.00;5045980;28;20036;-76
2022/09/02 01:36:43;;;;;;;3.75;2.20;;;;;;;14.94;59.32;101532.19;5047114;28;20025;-76
2022/09/02 01:39:10;;;;;;;6.57;2.08;;;;;;;14.90;59.73;101528.94;5048255;28;20032;-77
2022/09/02 01:41:35;;;;;;;5.55;2.20;;;;;;;14.93;59.74;101528.69;5046546;28;20103;-76
2022/09/02 01:44:01;;;;;;;5.90;1.95;;;;;;;14.85;60.15;101525.81;5048098;28;20159;-76
2022/09/02 01:46:27;;;;;;;4.57;1.88;;;;;;;14.86;59.75;101526.66;5048053;28;20044;-75
2022/09/02 01:48:52;;;;;;;5.57;2.15;;;;;;;14.82;59.90;101519.94;5047760;28;20036;-76
2022/09/02 01:51:19;;;;;;;3.25;1.75;;;;;;;14.85;60.02;101525.81;5048471;28;20020;-76
2022/09/02 01:53:47;;;;;;;3.80;1.95;;;;;;;14.80;59.97;101516.53;5047654;28;20024;-76
2022/09/02 01:56:13;;;;;;;4.63;2.05;;;;;;;14.76;60.08;101521.25;5047300;28;20116;-76
2022/09/02 01:58:38;;;;;;;5.28;1.95;;;;;;;14.83;60.10;101522.47;5048564;28;20032;-76
2022/09/02 02:01:04;;;;;;;7.72;1.85;;;;;;;14.73;60.29;101524.16;5047749;28;20503;-76
2022/09/02 02:03:29;;;;;;;4.65;1.80;;;;;;;14.75;60.23;101519.56;5049508;28;20033;-89
2022/09/02 02:05:55;;;;;;;6.63;2.05;;;;;;;14.69;60.47;101520.06;5051693;28;20048;-89
2022/09/02 02:08:21;;;;;;;4.40;1.88;;;;;;;14.66;60.49;101522.97;5046550;28;20056;-90
2022/09/02 02:10:47;;;;;;;4.50;1.90;;;;;;;14.70;60.49;101525.25;5050002;28;20040;-89
2022/09/02 02:13:13;;;;;;;7.30;2.20;;;;;;;14.76;60.50;101529.19;5053091;28;20025;-89
2022/09/02 02:15:40;;;;;;;6.38;2.17;;;;;;;14.66;60.57;101525.59;5050937;28;20028;-89
2022/09/02 02:18:06;;;;;;;3.05;1.90;;;;;;;14.68;60.89;101515.72;5050242;28;20055;-89
2022/09/02 02:20:31;;;;;;;7.97;2.15;;;;;;;14.59;61.02;101522.63;5053055;28;20474;-89
2022/09/02 02:22:57;;;;;;;6.95;2.25;;;;;;;14.59;61.06;101524.44;5051750;28;20025;-89
2022/09/02 02:25:22;;;;;;;5.80;2.00;;;;;;;14.64;60.95;101522.25;5050630;28;20060;-88
2022/09/02 02:27:48;;;;;;;6.13;2.03;;;;;;;14.59;60.98;101519.13;5052937;28;20036;-88
2022/09/02 02:30:15;;;;;;;3.42;2.00;;;;;;;14.59;60.84;101519.13;5049476;28;20519;-88
2022/09/02 02:32:42;;;;;;;8.63;2.08;;;;;;;14.54;61.12;101521.31;5050835;28;20059;-88
2022/09/02 02:35:08;;;;;;;4.30;1.63;;;;;;;14.57;61.24;101521.06;5050202;28;20029;-77
2022/09/02 02:37:34;;;;;;;4.80;2.40;;;;;;;14.51;61.34;101511.81;5046276;28;20074;-76
2022/09/02 02:39:59;;;;;;;6.68;2.65;;;;;;;14.56;61.16;101511.44;5046374;28;20112;-76
2022/09/02 02:42:24;;;;;;;4.00;2.30;;;;;;;14.57;61.28;101505.16;5031260;28;20107;-89
2022/09/02 02:44:50;;;;;;;4.25;1.83;;;;;;;14.58;61.02;101509.50;5050177;28;20096;-88
2022/09/02 02:47:15;;;;;;;6.65;2.20;;;;;;;14.52;61.08;101513.47;5050422;28;20033;-89
2022/09/02 02:49:42;;;;;;;6.10;2.33;;;;;;;14.51;61.25;101516.25;5052391;28;20536;-89
2022/09/02 02:52:09;;;;;;;6.10;2.20;;;;;;;14.48;61.53;101505.91;5051258;28;20368;-90
2022/09/02 02:54:34;;;;;;;4.80;1.98;;;;;;;14.48;61.68;101513.84;5051589;28;20083;-89
2022/09/02 02:57:00;;;;;;;9.90;2.42;;;;;;;14.50;61.36;101509.28;5053441;28;20537;-90
2022/09/02 02:59:25;;;;;;;5.88;2.22;;;;;;;14.47;60.96;101505.06;5053600;28;20032;-89
2022/09/02 03:01:54;;;;;;;8.23;2.40;;;;;;;14.48;61.34;101503.25;5062333;28;20029;-87
2022/09/02 03:04:19;;;;;;;8.23;2.03;;;;;;;14.51;61.16;101497.72;5060550;28;20056;-87
2022/09/02 03:06:45;;;;;;;5.47;2.13;;;;;;;14.53;61.34;101501.09;5059317;28;20025;-87
2022/09/02 03:09:10;;;;;;;7.82;2.50;;;;;;;14.49;61.43;101497.84;5058785;28;20112;-89
2022/09/02 03:11:36;;;;;;;7.53;2.38;;;;;;;14.50;61.24;101494.22;5052985;28;20025;-89
2022/09/02 03:14:01;;;;;;;5.00;2.67;;;;;;;14.52;61.20;101496.75;5052308;28;20040;-89
2022/09/02 03:16:27;;;;;;;7.20;2.45;;;;;;;14.55;61.03;101491.22;5051810;28;20084;-89
2022/09/02 03:18:52;;;;;;;6.53;2.40;;;;;;;14.56;61.24;101498.19;5052558;28;20029;-89
2022/09/02 03:21:18;;;;;;;5.93;2.40;;;;;;;14.49;61.67;101494.34;5053743;28;20036;-89
2022/09/02 03:23:45;;;;;;;5.43;2.58;;;;;;;14.46;61.72;101497.25;5057882;28;20028;-87
2022/09/02 03:26:13;;;;;;;15.88;3.17;;;;;;;14.43;61.66;101503.63;5059915;28;20533;-88
2022/09/02 03:28:39;;;;;;;9.57;3.28;;;;;;;14.40;61.61;101494.06;5060478;28;20040;-87
2022/09/02 03:31:05;;;;;;;4.22;2.80;;;;;;;14.38;61.85;101496.00;5062286;28;20100;-86
2022/09/02 03:33:31;;;;;;;7.70;2.85;;;;;;;14.30;61.66;101495.78;5061615;28;20021;-88
2022/09/02 03:35:57;;;;;;;6.97;2.72;;;;;;;14.37;61.95;101493.47;5062532;28;20092;-91
2022/09/02 03:38:22;;;;;;;5.90;2.88;;;;;;;14.28;62.10;101492.41;5065260;28;20107;-88
2022/09/02 03:40:48;;;;;;;7.72;2.75;;;;;;;14.24;62.16;101487.47;5062996;28;20033;-90
2022/09/02 03:43:13;;;;;;;5.15;2.53;;;;;;;14.24;62.23;101487.47;5057312;28;20071;-89
2022/09/02 03:45:40;;;;;;;5.55;2.90;;;;;;;14.18;62.47;101480.88;5056846;28;20044;-89
2022/09/02 03:48:06;;;;;;;7.68;3.10;;;;;;;14.10;62.75;101480.63;5053614;28;20029;-89
2022/09/02 03:50:36;;;;;;;7.30;2.92;;;;;;;14.08;62.61;101483.41;5054196;28;20031;-90
2022/09/02 03:53:03;;;;;;;10.60;3.03;;;;;;;14.06;63.00;101480.03;5054889;28;20555;-89
2022/09/02 03:55:29;;;;;;;4.88;2.78;;;;;;;14.10;62.82;101478.00;5053932;28;20622;-89
2022/09/02 03:57:54;;;;;;;10.02;3.50;;;;;;;14.10;62.97;101475.34;5057500;28;20032;-88
2022/09/02 04:00:27;;;;;;;8.63;3.20;;;;;;;14.03;63.09;101474.16;5061464;28;20025;-87
2022/09/02 04:02:54;;;;;;;10.43;3.33;;;;;;;14.01;63.13;101473.44;5061258;28;20024;-88
2022/09/02 04:05:21;;;;;;;8.20;3.47;;;;;;;14.04;63.17;101471.38;5054485;28;20013;-88
2022/09/02 04:07:46;;;;;;;5.60;3.15;;;;;;;14.01;62.91;101471.63;5076937;28;20036;-76
2022/09/02 04:10:12;;;;;;;8.00;3.60;;;;;;;13.94;63.44;101474.84;5049611;28;20060;-89
2022/09/02 04:12:37;;;;;;;6.88;3.30;;;;;;;13.84;63.62;101469.44;5054765;28;20053;-90
2022/09/02 04:15:05;;;;;;;12.13;3.55;;;;;;;13.88;63.59;101470.03;5052740;28;20103;-90
2022/09/02 04:17:30;;;;;;;6.88;3.53;;;;;;;13.84;63.88;101468.59;5052471;28;20025;-89
2022/09/02 04:19:59;;;;;;;8.90;3.90;;;;;;;13.79;64.12;101471.59;5052258;28;20063;-77
2022/09/02 04:22:24;;;;;;;6.22;3.78;;;;;;;13.77;64.28;101465.59;5050137;28;20501;-76
2022/09/02 04:24:49;;;;;;;10.63;3.90;;;;;;;13.76;64.40;101462.09;5048569;28;20049;-77
2022/09/02 04:27:15;;;;;;;9.52;3.85;;;;;;;13.71;64.34;101456.31;5047469;28;20035;-77
2022/09/02 04:29:40;;;;;;;11.77;4.53;;;;;;;13.72;64.42;101455.38;5050223;28;20467;-77
2022/09/02 04:32:05;;;;;;;13.15;4.10;;;;;;;13.69;64.62;101455.59;5049420;28;20047;-77
2022/09/02 04:34:31;;;;;;;11.88;4.57;;;;;;;13.68;64.63;101459.22;5050611;28;20056;-77
2022/09/02 04:36:59;;;;;;;7.63;4.13;;;;;;;13.65;64.96;101459.44;5048857;28;20028;-77
2022/09/02 04:39:25;;;;;;;10.43;5.43;;;;;;;13.65;64.99;101454.16;5049855;28;20486;-76
2022/09/02 04:41:50;;;;;;;8.40;4.57;;;;;;;13.67;65.00;101461.97;5051778;28;20032;-77
2022/09/02 04:44:15;;;;;;;9.23;4.97;;;;;;;13.65;64.65;101456.81;5049164;28;20131;-76
2022/09/02 04:46:41;;;;;;;12.27;5.40;;;;;;;13.67;64.79;101457.53;5051013;28;20522;-78
2022/09/02 04:49:07;;;;;;;11.75;5.80;;;;;;;13.68;65.12;101456.56;5049911;28;20032;-91
2022/09/02 04:51:33;;;;;;;12.10;5.38;;;;;;;13.74;65.06;101453.44;5052992;28;20032;-79
2022/09/02 04:53:59;;;;;;;13.05;5.75;;;;;;;13.73;64.98;101457.03;5050977;28;20025;-77
2022/09/02 04:56:27;;;;;;;12.70;5.95;;;;;;;13.73;65.20;101454.41;5059022;28;20494;-90
2022/09/02 04:58:54;;;;;;;12.43;6.30;;;;;;;13.76;64.94;101462.09;5056740;28;20017;-90
2022/09/02 05:01:23;;;;;;;14.30;6.32;;;;;;;13.82;65.07;101465.22;5053632;28;20027;-90
2022/09/02 05:03:50;;;;;;;15.02;6.22;;;;;;;13.85;64.92;101454.41;5084416;28;20025;-90
2022/09/02 05:06:22;;;;;;;16.25;6.88;;;;;;;13.91;64.80;101457.41;5051886;28;20047;-90
2022/09/02 05:08:48;;;;;;;16.58;7.03;;;;;;;13.96;64.76;101457.03;5052947;28;20025;-90
2022/09/02 05:11:17;;;;;;;18.65;7.13;;;;;;;14.01;64.75;101460.19;5052818;28;20021;-90
2022/09/02 05:13:44;;;;;;;16.90;7.70;;;;;;;14.00;65.01;101458.47;5052398;28;20146;-89
2022/09/02 05:16:14;;;;;;;17.25;7.85;;;;;;;14.07;64.44;101465.00;5052997;28;20028;-90
2022/09/02 05:18:39;;;;;;;18.63;7.68;;;;;;;14.06;64.64;101453.56;5049446;28;20036;-90
2022/09/02 05:21:46;;;;;;;17.52;8.63;;;;;;;14.16;64.19;101461.63;5034356;28;20108;-91
2022/09/02 05:24:28;;;;;;;18.88;8.20;;;;;;;14.18;64.03;101462.34;5051893;28;20044;-90
2022/09/02 05:26:55;;;;;;;21.25;8.98;;;;;;;14.26;64.28;101449.34;5066649;28;20023;-91
2022/09/02 05:29:23;;;;;;;23.05;9.25;;;;;;;14.32;64.22;101464.72;5066925;28;20033;-90
2022/09/02 05:32:23;;;;;;;16.98;9.35;;;;;;;14.39;63.88;101463.25;5034702;28;20497;-90
2022/09/02 05:34:48;;;;;;;19.65;10.60;;;;;;;14.43;63.86;101458.63;5083953;28;20022;-91
2022/09/02 05:37:23;;;;;;;23.52;10.80;;;;;;;14.50;63.56;101462.44;5076817;28;20059;-91
2022/09/02 05:40:43;;;;;;;24.00;10.55;;;;;;;14.54;63.47;101460.41;5077862;28;20035;-90
2022/09/02 05:43:18;;;;;;;23.35;10.70;;;;;;;14.52;63.35;101462.31;5077195;28;20063;-90
2022/09/02 05:45:43;;;;;;;29.85;11.35;;;;;;;14.59;63.69;101455.56;5073770;28;20033;-89
2022/09/02 05:51:12;;;;;;;25.63;11.48;;;;;;;14.68;63.72;101468.06;5056770;28;20101;-90
2022/09/02 05:53:38;;;;;;;26.70;11.10;;;;;;;14.72;63.51;101464.19;5067578;28;20285;-90
2022/09/02 05:56:04;;;;;;;20.98;10.50;;;;;;;14.79;63.38;101462.72;5073898;28;20017;-90
2022/09/02 05:58:30;;;;;;;24.27;11.27;;;;;;;14.85;63.05;101454.28;5076896;28;20071;-90
2022/09/02 06:00:57;;;;;;;22.05;10.75;;;;;;;14.89;62.99;101452.22;5076353;28;20033;-91
2022/09/02 06:03:23;;;;;;;21.67;10.77;;;;;;;14.90;63.21;101453.91;5076459;28;20068;-90
2022/09/02 06:05:56;;;;;;;23.15;10.82;;;;;;;14.97;63.04;101455.91;5076513;28;20034;-90
2022/09/02 06:08:22;;;;;;;19.98;10.63;;;;;;;15.03;63.02;101450.09;5075663;28;20025;-89
2022/09/02 06:10:48;;;;;;;29.95;13.43;;;;;;;15.06;63.09;101449.00;5074726;28;20071;-88
2022/09/02 06:13:14;;;;;;;26.05;13.20;;;;;;;15.14;62.73;101451.00;5068704;28;20076;-90
2022/09/02 06:15:52;;;;;;;25.45;12.10;;;;;;;15.23;62.40;101450.28;5076106;28;20020;-90
2022/09/02 06:18:17;;;;;;;27.20;13.02;;;;;;;15.30;62.48;101446.97;5076038;28;20037;-90
2022/09/02 06:20:45;;;;;;;22.52;12.95;;;;;;;15.38;62.67;101453.44;5076493;28;20025;-90
2022/09/02 06:23:11;;;;;;;28.67;13.77;;;;;;;15.46;62.34;101450.97;5075241;28;20466;-90
2022/09/02 06:25:39;;;;;;;31.95;13.35;;;;;;;15.51;62.12;101446.09;5076048;28;20016;-90
2022/09/02 06:28:04;;;;;;;24.20;13.45;;;;;;;15.55;61.94;101450.19;5075154;28;20067;-91
2022/09/02 06:30:29;;;;;;;34.20;14.57;;;;;;;15.62;61.57;101444.28;5074824;28;20025;-90
2022/09/02 06:32:55;;;;;;;29.17;14.65;;;;;;;15.70;61.50;101440.97;5076233;28;20009;-90
2022/09/02 06:35:21;;;;;;;29.77;13.32;;;;;;;15.75;61.37;101445.88;5075129;28;20312;-90
2022/09/02 06:37:47;;;;;;;35.72;15.98;;;;;;;15.82;61.06;101442.53;5075432;28;20013;-89
2022/09/02 06:40:13;;;;;;;34.42;15.80;;;;;;;15.89;61.64;101448.16;5075130;28;20120;-90
2022/09/02 06:42:38;;;;;;;33.58;16.25;;;;;;;15.96;61.21;101438.69;5074853;28;20028;-88
2022/09/02 06:45:04;;;;;;;27.83;16.05;;;;;;;16.06;60.62;101444.06;5075219;28;20037;-89
2022/09/02 06:47:30;;;;;;;34.63;16.40;;;;;;;16.11;60.33;101442.66;5076320;28;20013;-90
2022/09/02 06:52:31;;;;;;;40.67;18.42;;;;;;;16.27;60.15;101435.03;5932701;23;20074;-89
2022/09/02 06:54:59;;;;;;;36.08;17.85;;;;;;;16.35;59.64;101436.16;5151896;22;20105;-89
2022/09/02 06:57:24;;;;;;;36.85;17.50;;;;;;;16.40;59.40;101437.41;5037491;28;20021;-88
2022/09/02 06:59:50;;;;;;;31.13;17.65;;;;;;;16.49;59.07;101438.44;5051525;28;20028;-91
2022/09/02 07:02:16;;;;;;;36.33;17.50;;;;;;;16.55;59.11;101441.38;5046106;28;20013;-89
2022/09/02 07:07:25;;;;;;;30.20;17.35;;;;;;;16.70;58.60;101431.22;5038360;28;20096;-90
2022/09/02 07:09:54;;;;;;;37.45;16.90;;;;;;;16.77;58.33;101434.16;5030720;28;20025;-90
2022/09/02 07:12:20;;;;;;;31.75;18.10;;;;;;;16.84;58.35;101429.97;5024336;28;20036;-90
2022/09/02 07:14:45;;;;;;;35.10;16.95;;;;;;;16.92;57.17;101428.28;5016076;28;20025;-89
2022/09/02 07:17:20;;;;;;;30.35;17.00;;;;;;;17.00;58.06;101426.75;5014136;28;21028;-90
2022/09/02 07:19:46;;;;;;;39.63;16.95;;;;;;;17.09;57.29;101425.91;5014804;28;20055;-90
2022/09/02 07:22:12;;;;;;;33.92;16.10;;;;;;;17.15;57.13;101423.50;5016058;28;20444;-92
2022/09/02 07:24:37;;;;;;;30.73;15.52;;;;;;;17.23;57.05;101421.00;5017012;28;20100;-93
2022/09/02 07:27:04;;;;;;;26.02;14.93;;;;;;;17.33;56.51;101426.28;4996824;28;20017;-91
2022/09/02 07:29:30;;;;;;;33.67;15.48;;;;;;;17.39;56.28;101420.41;4997450;28;20402;-92
2022/09/02 07:31:55;;;;;;;31.55;15.02;;;;;;;17.47;56.00;101417.00;4996520;28;20034;-93
2022/09/02 07:34:21;;;;;;;30.10;14.45;;;;;;;17.52;56.28;101420.06;5014273;28;20053;-91
2022/09/02 07:36:47;;;;;;;28.10;14.18;;;;;;;17.57;55.97;101419.63;5017203;28;20018;-92
2022/09/02 07:39:13;;;;;;;31.38;14.85;;;;;;;17.62;55.81;101425.38;5014897;28;20046;-92
2022/09/02 07:41:40;;;;;;;26.83;13.95;;;;;;;17.67;55.82;101415.19;4995462;28;20049;-77
2022/09/02 07:44:06;;;;;;;28.17;14.77;;;;;;;17.73;55.74;101418.09;5006246;28;20029;-88
2022/09/02 07:46:33;;;;;;;30.52;14.68;;;;;;;17.81;55.58;101420.00;5024466;28;20022;-88
2022/09/02 07:49:00;;;;;;;33.35;14.68;;;;;;;17.88;55.81;101415.78;5018681;28;20026;-89
2022/09/02 07:51:25;;;;;;;28.58;15.30;;;;;;;17.93;55.74;101413.50;5019570;28;20474;-88
2022/09/02 07:53:54;;;;;;;36.33;16.35;;;;;;;18.02;55.81;101423.31;5004716;28;20076;-89
2022/09/02 07:56:19;;;;;;;32.88;15.63;;;;;;;18.01;55.06;101424.28;5017594;28;20446;-90
2022/09/02 07:58:45;;;;;;;34.97;14.70;;;;;;;18.09;55.31;101413.72;5023377;28;20030;-89
2022/09/02 08:01:12;;;;;;;35.47;14.77;;;;;;;18.17;55.08;101415.66;5014718;28;20030;-87
2022/09/02 08:03:39;;;;;;;31.10;15.40;;;;;;;18.25;55.25;101414.91;5014797;28;20026;-86
2022/09/02 08:06:06;;;;;;;31.92;14.75;;;;;;;18.27;54.67;101420.91;5007543;28;20572;-87
2022/09/02 08:08:32;;;;;;;26.38;13.07;;;;;;;18.31;54.60;101417.78;5012185;28;20033;-87
2022/09/02 08:10:58;;;;;;;24.77;13.98;;;;;;;18.37;54.55;101416.34;5010020;28;20030;-86
2022/09/02 08:13:23;;;;;;;31.38;15.05;;;;;;;18.43;54.79;101415.78;5006042;28;20038;-87
2022/09/02 08:15:49;;;;;;;31.45;14.77;;;;;;;18.46;54.41;101404.81;5007254;28;20087;-77
2022/09/02 08:18:15;;;;;;;26.75;15.07;;;;;;;18.50;54.83;101410.69;4991770;28;20053;-88
2022/09/02 08:20:40;;;;;;;30.33;14.80;;;;;;;18.57;54.16;101407.25;5010851;28;20030;-88
2022/09/02 08:23:07;;;;;;;31.20;14.35;;;;;;;18.56;54.14;101405.56;5010604;28;20026;-88
2022/09/02 08:25:33;;;;;;;30.45;14.05;;;;;;;18.68;54.14;101399.06;5010547;28;20177;-88
2022/09/02 08:27:59;;;;;;;30.08;13.25;;;;;;;18.77;53.97;101390.13;4994181;28;20025;-88
2022/09/02 08:30:25;;;;;;;37.28;13.85;;;;;;;18.79;53.58;101397.97;5011108;28;20146;-88
2022/09/02 08:32:50;;;;;;;29.83;13.88;;;;;;;18.91;53.73;101401.25;5013405;28;20079;-89
2022/09/02 08:35:16;;;;;;;29.42;14.05;;;;;;;18.96;53.34;101396.31;5008858;28;20573;-88
2022/09/02 08:37:41;;;;;;;25.42;13.55;;;;;;;19.00;53.43;101393.16;5008097;28;20057;-88
2022/09/02 08:40:15;;;;;;;24.52;12.77;;;;;;;19.13;53.33;101398.09;5011305;28;20057;-88
2022/09/02 08:42:45;;;;;;;27.73;12.30;;;;;;;19.21;53.71;101394.63;5016910;28;20022;-88
2022/09/02 08:45:12;;;;;;;27.45;12.25;;;;;;;19.27;53.05;101394.03;5020154;28;20026;-87
2022/09/02 08:47:39;;;;;;;27.25;12.68;;;;;;;19.35;53.19;101396.75;5027775;28;20014;-86
2022/09/02 08:50:23;;;;;;;21.80;12.20;;;;;;;19.51;53.35;101401.34;5024497;28;20029;-86
2022/09/02 08:53:12;;;;;;;29.52;11.85;;;;;;;19.58;52.52;101397.06;5026340;28;20022;-85
2022/09/02 08:55:49;;;;;;;22.27;9.93;;;;;;;19.61;52.63;101394.09;5021816;28;20065;-87
2022/09/02 08:58:21;;;;;;;15.30;8.80;;;;;;;19.68;52.47;101398.66;5029032;28;20034;-87
2022/09/02 09:01:03;;;;;;;20.73;9.23;;;;;;;19.79;52.22;101394.84;5029217;28;20253;-87
2022/09/02 09:03:36;;;;;;;17.55;8.82;;;;;;;19.87;52.21;101397.56;5013343;28;20033;-86
2022/09/02 09:06:28;;;;;;;13.07;6.97;;;;;;;19.92;51.95;101400.59;5014129;28;20026;-87
2022/09/02 09:09:04;;;;;;;21.70;7.13;;;;;;;19.91;51.89;101404.25;5032859;28;20081;-88
2022/09/02 09:11:37;;;;;;;13.95;6.15;;;;;;;20.01;51.37;101399.66;5016357;28;20064;-86
2022/09/02 09:14:27;;;;;;;17.48;7.07;;;;;;;20.10;51.80;101407.69;5034147;28;20090;-85
2022/09/02 09:17:05;;;;;;;13.07;7.13;;;;;;;20.16;52.14;101399.00;5033916;28;20033;-86
2022/09/02 09:19:46;;;;;;;14.85;5.72;;;;;;;20.23;51.80;101394.69;5032588;28;20022;-86
2022/09/02 09:22:14;;;;;;;12.77;5.85;;;;;;;20.28;51.12;101395.88;5015178;28;20084;-85
2022/09/02 09:24:43;;;;;;;15.57;5.20;;;;;;;20.35;51.46;101401.38;5028743;28;20044;-85
2022/09/02 09:27:12;;;;;;;12.90;5.90;;;;;;;20.38;51.47;101394.88;5024391;28;20033;-86
2022/09/02 09:29:38;;;;;;;11.82;5.03;;;;;;;20.49;51.11;101386.59;5003871;28;20026;-87
2022/09/02 09:32:10;;;;;;;12.52;4.13;;;;;;;20.69;51.48;101387.94;5001599;28;20030;-86
2022/09/02 09:35:01;;;;;;;12.88;3.95;;;;;;;20.83;51.05;101389.16;5010296;28;20026;-86
2022/09/02 09:37:38;;;;;;;12.15;4.03;;;;;;;20.96;49.98;101392.16;5012239;28;20164;-86
2022/09/02 09:40:22;;;;;;;8.40;3.30;;;;;;;21.06;50.30;101382.09;5010282;28;20044;-86
2022/09/02 09:42:54;;;;;;;8.43;3.90;;;;;;;21.11;50.05;101377.06;5012461;28;20022;-90
2022/09/02 09:45:26;;;;;;;5.88;3.20;;;;;;;21.23;49.63;101374.94;5012373;28;20026;-86
2022/09/02 09:48:28;;;;;;;15.02;3.40;;;;;;;21.40;50.11;101370.38;5010996;28;20411;-87
2022/09/02 09:50:53;;;;;;;7.68;3.17;;;;;;;21.57;49.08;101371.97;5003688;28;20042;-87
2022/09/02 09:53:20;;;;;;;6.20;2.80;;;;;;;21.74;48.42;101368.25;5011077;28;20061;-86
2022/09/02 09:55:54;;;;;;;10.45;3.00;;;;;;;21.87;48.18;101379.25;4993242;28;20049;-87
2022/09/02 09:58:30;;;;;;;8.23;2.70;;;;;;;22.12;48.02;101373.81;5011541;28;20104;-87
2022/09/02 10:00:59;;;;;;;10.85;2.50;;;;;;;22.40;46.53;101364.22;5010335;28;20025;-87
2022/09/02 10:03:30;;;;;;;11.43;2.67;;;;;;;22.68;46.93;101358.34;5011530;28;20025;-86
2022/09/02 10:05:58;;;;;;;6.97;2.20;;;;;;;23.01;45.45;101351.72;4993132;28;20061;-87
2022/09/02 10:08:50;;;;;;;7.53;2.40;;;;;;;23.18;45.90;101351.53;5011970;28;20080;-87
2022/09/02 10:11:26;;;;;;;7.05;2.10;;;;;;;23.36;45.01;101357.41;5011550;28;20555;-88
2022/09/02 10:14:00;;;;;;;10.60;2.22;;;;;;;23.47;44.46;101350.72;4994263;28;20040;-86
2022/09/02 10:16:47;;;;;;;5.47;2.05;;;;;;;23.66;44.22;101348.34;5011422;28;20109;-88
2022/09/02 10:19:33;;;;;;;3.67;2.08;;;;;;;23.74;43.61;101337.50;4993328;28;20030;-87
2022/09/02 10:22:35;;;;;;;8.65;2.08;;;;;;;24.04;43.28;101345.50;5012059;28;20062;-87
2022/09/02 10:25:29;;;;;;;5.97;1.80;;;;;;;24.21;41.22;101338.88;4995318;28;20022;-87
2022/09/02 10:28:08;;;;;;;10.38;2.17;;;;;;;24.36;40.64;101336.97;4997521;28;20098;-88
2022/09/02 10:31:01;;;;;;;7.10;2.00;;;;;;;24.63;41.59;101327.31;4995176;28;20387;-88
2022/09/02 10:33:48;;;;;;;11.32;2.00;;;;;;;24.79;40.52;101334.25;5012980;28;20030;-87
2022/09/02 10:36:17;;;;;;;5.13;2.00;;;;;;;24.83;38.66;101327.47;5011734;28;20092;-87
2022/09/02 10:38:46;;;;;;;7.47;2.00;;;;;;;24.90;40.24;101317.59;4993380;28;20117;-88
2022/09/02 10:41:36;;;;;;;3.25;1.77;;;;;;;25.15;40.31;101319.84;4993305;28;20943;-88
2022/09/02 10:44:30;;;;;;;4.70;1.80;;;;;;;25.17;39.32;101324.00;5010800;28;20527;-87
2022/09/02 10:47:05;;;;;;;8.30;2.00;;;;;;;25.26;38.34;101320.16;5013110;28;20021;-87
2022/09/02 10:49:37;;;;;;;6.68;1.70;;;;;;;25.36;37.95;101310.88;5014609;28;20057;-87
2022/09/02 10:52:10;;;;;;;3.40;1.70;;;;;;;25.51;38.62;101316.94;5013484;28;20030;-87
2022/09/02 10:55:02;;;;;;;3.85;1.90;;;;;;;25.65;37.43;101316.00;4995786;28;20385;-87
2022/09/02 10:57:31;;;;;;;7.30;1.90;;;;;;;25.85;38.18;101305.31;5012937;28;20032;-87
2022/09/02 11:00:02;;;;;;;8.57;2.20;;;;;;;26.02;36.52;101303.91;5012426;28;20053;-87
2022/09/02 11:02:37;;;;;;;9.85;1.90;;;;;;;26.21;36.02;101300.41;5013140;28;20030;-87
2022/09/02 11:05:20;;;;;;;5.45;1.58;;;;;;;26.32;36.57;101295.44;4994288;28;20026;-86
2022/09/02 11:07:54;;;;;;;5.95;2.00;;;;;;;26.32;34.64;101281.94;4995129;28;20120;-88
2022/09/02 11:10:54;;;;;;;2.67;1.65;;;;;;;26.37;35.38;101287.59;5013577;28;20026;-86
2022/09/02 11:13:34;;;;;;;4.75;1.73;;;;;;;26.44;34.88;101285.75;5013030;28;20483;-87
2022/09/02 11:16:14;;;;;;;5.38;1.88;;;;;;;26.31;34.17;101283.81;5012561;28;20069;-85
2022/09/02 11:18:48;;;;;;;21.23;2.30;;;;;;;26.34;34.13;101271.81;5012674;28;20571;-87
2022/09/02 11:21:30;;;;;;;8.20;1.80;;;;;;;26.37;34.52;101268.69;4994796;28;20029;-87
2022/09/02 11:24:05;;;;;;;3.22;1.52;;;;;;;26.47;34.17;101261.88;4995438;28;20057;-88
2022/09/02 11:26:59;;;;;;;5.10;1.80;;;;;;;26.65;33.51;101252.28;4992707;28;20029;-87
2022/09/02 11:29:50;;;;;;;3.42;1.50;;;;;;;26.79;33.72;101259.34;4995840;28;20571;-87
2022/09/02 11:32:28;;;;;;;4.60;1.40;;;;;;;26.90;31.58;101252.47;4985793;28;20026;-87
2022/09/02 11:34:57;;;;;;;5.90;1.60;;;;;;;27.02;31.22;101261.63;4991849;28;20036;-87
2022/09/02 11:37:32;;;;;;;4.35;1.65;;;;;;;27.03;31.84;101255.19;5008701;28;20017;-86